Time;durP1;ratioP1;P1;durP2;ratioP2;P2;SDS_P1;SDS_P2;PMS_P1;PMS_P2;Temp;Humidity;BMP_temperature;BMP_pressure;BME280_temperature;BME280_humidity;BME280_pressure;Samples;Min_cycle;Max_cycle;Signal;HPM_P1;HPM_P2
2022/10/26 00:01:32;;;;;;;;;;;;;;;25.76;47.29;94294.19;4955158;28;7098;-60
2022/10/26 00:04:07;;;;;;;;;;;;;;;25.76;47.31;94305.97;4971213;28;8776;-60
2022/10/26 00:06:34;;;;;;;;;;;;;;;25.77;47.08;94304.72;4955122;28;7292;-60
2022/10/26 00:09:19;;;;;;;;;;;;;;;25.77;47.07;94292.94;4954796;28;7324;-60
2022/10/26 00:11:52;;;;;;;;;;;;;;;25.77;47.74;94301.22;4987027;28;7270;-60
2022/10/26 00:14:30;;;;;;;;;;;;;;;25.76;47.68;94308.72;4971108;28;7368;-60
2022/10/26 00:17:28;;;;;;;;;;;;;;;25.76;47.06;94307.97;4970737;28;9049;-60
2022/10/26 00:19:56;;;;;;;;;;;;;;;25.75;47.67;94309.97;4883309;29;7270;-60
2022/10/26 00:22:22;;;;;;;;;;;;;;;25.75;47.80;94298.22;4894720;29;8235;-60
2022/10/26 00:24:48;;;;;;;;;;;;;;;25.75;47.25;94301.72;4898599;29;7236;-60
2022/10/26 00:27:14;;;;;;;;;;;;;;;25.75;47.39;94293.44;4945466;28;9020;-60
2022/10/26 00:29:40;;;;;;;;;;;;;;;25.75;47.58;94290.69;4918502;29;7409;-60
2022/10/26 00:32:07;;;;;;;;;;;;;;;25.76;47.42;94291.44;4935311;29;7159;-60
2022/10/26 00:34:48;;;;;;;;;;;;;;;25.74;47.29;94289.22;4934154;29;7496;-60
2022/10/26 00:37:15;;;;;;;;;;;;;;;25.75;47.54;94290.69;4943425;28;7116;-59
2022/10/26 00:40:10;;;;;;;;;;;;;;;25.73;47.14;94295.97;4934606;29;7207;-60
2022/10/26 00:42:39;;;;;;;;;;;;;;;25.75;47.26;94295.47;4957774;28;7255;-60
2022/10/26 00:45:25;;;;;;;;;;;;;;;25.75;46.81;94296.19;4951884;28;6983;-60
2022/10/26 00:52:07;;;;;;;;;;;;;;;25.76;47.42;94286.69;4954628;28;7009;-60
2022/10/26 00:54:58;;;;;;;;;;;;;;;25.77;47.64;94281.94;4881689;29;7243;-60
2022/10/26 00:57:36;;;;;;;;;;;;;;;25.73;47.49;94273.94;4899981;29;7066;-60
2022/10/26 01:00:20;;;;;;;;;;;;;;;25.71;47.30;94268.19;4909662;29;7208;-60
2022/10/26 01:03:09;;;;;;;;;;;;;;;25.73;47.35;94248.41;4916322;29;7343;-60
2022/10/26 01:05:48;;;;;;;;;;;;;;;25.73;47.49;94243.63;4913931;29;7032;-60
2022/10/26 01:08:28;;;;;;;;;;;;;;;25.73;47.55;94240.88;4931129;29;7425;-60
2022/10/26 01:10:58;;;;;;;;;;;;;;;25.73;46.81;94232.59;4915513;29;8182;-60
2022/10/26 01:13:36;;;;;;;;;;;;;;;25.71;47.42;94229.63;4906942;29;8940;-60
2022/10/26 01:16:13;;;;;;;;;;;;;;;25.74;47.41;94241.63;4913470;29;9139;-60
2022/10/26 01:19:16;;;;;;;;;;;;;;;25.74;46.70;94242.38;4909174;29;7179;-60
2022/10/26 01:22:16;;;;;;;;;;;;;;;25.73;46.78;94238.13;4926666;29;9316;-60
2022/10/26 01:25:19;;;;;;;;;;;;;;;25.74;47.58;94230.59;4927133;29;9693;-60
2022/10/26 01:27:49;;;;;;;;;;;;;;;25.73;47.22;94240.16;4933198;29;7151;-60
2022/10/26 01:30:18;;;;;;;;;;;;;;;25.71;47.18;94243.41;4944959;28;9131;-60
2022/10/26 01:33:05;;;;;;;;;;;;;;;25.72;47.61;94247.66;5014844;28;9258;-60
2022/10/26 01:35:54;;;;;;;;;;;;;;;25.71;47.47;94268.19;5013703;28;7260;-60
2022/10/26 01:38:41;;;;;;;;;;;;;;;25.71;47.47;94295.00;5004824;28;7070;-60
2022/10/26 01:41:39;;;;;;;;;;;;;;;25.72;46.43;94359.84;5044782;28;7257;-60
2022/10/26 01:44:38;;;;;;;;;;;;;;;25.73;47.35;94424.72;5029305;28;6979;-60
2022/10/26 01:47:19;;;;;;;;;;;;;;;25.74;47.37;94432.47;4997504;28;7262;-60
2022/10/26 01:49:54;;;;;;;;;;;;;;;25.72;46.73;94423.97;5023674;28;7075;-60
2022/10/26 01:52:31;;;;;;;;;;;;;;;25.72;47.66;94401.94;5029586;28;7271;-60
2022/10/26 01:55:40;;;;;;;;;;;;;;;25.69;47.52;94375.38;5045970;28;7355;-60
2022/10/26 01:58:52;;;;;;;;;;;;;;;25.70;46.89;94359.63;4992262;28;9067;-60
2022/10/26 02:01:23;;;;;;;;;;;;;;;25.70;47.22;94376.91;4975745;28;7122;-60
2022/10/26 02:07:39;;;;;;;;;;;;;;;25.70;46.99;94404.44;4992317;28;6873;-60
2022/10/26 02:10:23;;;;;;;;;;;;;;;25.69;47.72;94413.97;4992577;28;8735;-61
2022/10/26 02:13:35;;;;;;;;;;;;;;;25.68;46.79;94420.75;4989201;28;7233;-60
2022/10/26 02:16:14;;;;;;;;;;;;;;;25.68;47.39;94440.03;4981486;28;7343;-62
2022/10/26 02:19:32;;;;;;;;;;;;;;;25.66;47.74;94431.53;4985293;28;7756;-61
2022/10/26 02:22:18;;;;;;;;;;;;;;;25.67;47.48;94443.28;4992246;28;7187;-61
2022/10/26 02:24:49;;;;;;;;;;;;;;;25.64;47.90;94456.06;4992298;28;7159;-61
2022/10/26 02:27:22;;;;;;;;;;;;;;;25.67;46.88;94470.81;4983268;28;7285;-61
2022/10/26 02:29:52;;;;;;;;;;;;;;;25.67;47.27;94477.06;4986616;28;9136;-61
2022/10/26 02:32:37;;;;;;;;;;;;;;;25.69;47.45;94476.56;4991644;28;7282;-61
2022/10/26 02:35:27;;;;;;;;;;;;;;;25.67;47.59;94488.09;5008863;28;6998;-61
2022/10/26 02:38:00;;;;;;;;;;;;;;;25.66;47.54;94461.06;5024906;28;9126;-59
2022/10/26 02:41:00;;;;;;;;;;;;;;;25.67;47.83;94468.06;5011753;28;7277;-59
2022/10/26 02:43:50;;;;;;;;;;;;;;;25.67;47.00;94499.13;4955509;28;7105;-60
2022/10/26 02:46:27;;;;;;;;;;;;;;;25.66;47.58;94511.41;4972137;28;7864;-60
2022/10/26 02:49:10;;;;;;;;;;;;;;;25.66;47.37;94536.19;4976078;28;7282;-59
2022/10/26 02:51:49;;;;;;;;;;;;;;;25.65;47.43;94533.94;4972328;28;9471;-59
2022/10/26 02:54:47;;;;;;;;;;;;;;;25.65;47.51;94534.69;4955571;28;7206;-59
2022/10/26 02:57:46;;;;;;;;;;;;;;;25.64;47.63;94533.19;4967964;28;7152;-59
2022/10/26 03:00:21;;;;;;;;;;;;;;;25.63;47.10;94530.94;4886874;29;7196;-59
2022/10/26 03:02:56;;;;;;;;;;;;;;;25.64;47.01;94541.47;4877269;29;7099;-59
2022/10/26 03:05:35;;;;;;;;;;;;;;;25.64;47.61;94537.97;4877568;29;7002;-59
2022/10/26 03:08:02;;;;;;;;;;;;;;;25.65;47.17;94540.19;4877109;29;9238;-59
2022/10/26 03:10:29;;;;;;;;;;;;;;;25.64;47.11;94543.47;4876722;29;7318;-59
2022/10/26 03:12:55;;;;;;;;;;;;;;;25.63;47.60;94558.47;4876857;29;9385;-59
2022/10/26 03:15:24;;;;;;;;;;;;;;;25.63;47.54;94567.50;4862086;29;7036;-59
2022/10/26 03:17:52;;;;;;;;;;;;;;;25.64;47.35;94565.50;4876808;29;7008;-59
2022/10/26 03:20:18;;;;;;;;;;;;;;;25.64;47.20;94582.03;4879933;29;7256;-59
2022/10/26 03:22:49;;;;;;;;;;;;;;;25.62;47.77;94560.47;4895046;29;7560;-59
2022/10/26 03:25:15;;;;;;;;;;;;;;;25.62;47.28;94563.25;4895767;29;7278;-59
2022/10/26 03:27:46;;;;;;;;;;;;;;;25.61;47.27;94547.97;4901632;29;7214;-59
2022/10/26 03:30:24;;;;;;;;;;;;;;;25.61;47.34;94531.44;4882727;29;8749;-59
2022/10/26 03:32:52;;;;;;;;;;;;;;;25.60;47.53;94540.22;4918536;28;7338;-59
2022/10/26 03:35:31;;;;;;;;;;;;;;;25.59;46.93;94549.75;4939775;28;7509;-59
2022/10/26 03:38:06;;;;;;;;;;;;;;;25.58;47.49;94535.22;5011550;28;9776;-59
2022/10/26 03:40:34;;;;;;;;;;;;;;;25.58;47.31;94524.19;5028447;28;7328;-59
2022/10/26 03:43:07;;;;;;;;;;;;;;;25.57;47.94;94511.69;5011074;28;6997;-59
2022/10/26 03:45:36;;;;;;;;;;;;;;;25.53;46.96;94505.72;5038077;28;8547;-59
2022/10/26 03:48:17;;;;;;;;;;;;;;;25.54;47.56;94489.91;5009652;28;7262;-60
2022/10/26 03:50:43;;;;;;;;;;;;;;;25.55;46.98;94472.91;5002307;28;7136;-59
2022/10/26 03:53:10;;;;;;;;;;;;;;;25.54;47.24;94457.63;5011129;28;7713;-60
2022/10/26 03:55:50;;;;;;;;;;;;;;;25.55;47.70;94439.09;5003247;28;7160;-59
2022/10/26 03:58:16;;;;;;;;;;;;;;;25.54;47.82;94432.84;5010080;28;7259;-59
2022/10/26 04:00:51;;;;;;;;;;;;;;;25.55;47.85;94425.31;5010567;28;7342;-59
2022/10/26 04:03:24;;;;;;;;;;;;;;;25.54;47.66;94430.06;5026449;28;7248;-59
2022/10/26 04:06:02;;;;;;;;;;;;;;;25.56;47.26;94416.53;5032864;28;7146;-59
2022/10/26 04:08:29;;;;;;;;;;;;;;;25.58;46.90;94419.53;5012353;28;7390;-59
2022/10/26 04:10:57;;;;;;;;;;;;;;;25.56;46.98;94429.56;5045431;28;7248;-59
2022/10/26 04:13:38;;;;;;;;;;;;;;;25.53;47.83;94428.59;5012289;28;7223;-59
2022/10/26 04:16:04;;;;;;;;;;;;;;;25.55;47.83;94439.09;5048036;28;7308;-59
2022/10/26 04:18:31;;;;;;;;;;;;;;;25.56;47.48;94432.31;5010977;28;8342;-59
2022/10/26 04:21:00;;;;;;;;;;;;;;;25.55;47.43;94442.59;5010990;28;7237;-59
2022/10/26 04:23:29;;;;;;;;;;;;;;;25.54;47.39;94446.59;5028528;28;9127;-59
2022/10/26 04:25:57;;;;;;;;;;;;;;;25.54;47.58;94451.34;5031042;28;8457;-60
2022/10/26 04:28:25;;;;;;;;;;;;;;;25.55;47.19;94455.63;5022078;28;6983;-59
2022/10/26 04:30:51;;;;;;;;;;;;;;;25.52;47.44;94456.63;5013217;28;7317;-59
2022/10/26 04:33:19;;;;;;;;;;;;;;;25.54;47.09;94470.63;5021215;28;9148;-59
2022/10/26 04:35:47;;;;;;;;;;;;;;;25.55;47.41;94469.38;5013677;28;8181;-59
2022/10/26 04:38:13;;;;;;;;;;;;;;;25.52;47.51;94471.16;5029215;28;7377;-59
2022/10/26 04:40:40;;;;;;;;;;;;;;;25.53;48.05;94478.16;5045696;28;7188;-59
2022/10/26 04:43:07;;;;;;;;;;;;;;;25.51;47.73;94480.69;4998875;28;8506;-59
2022/10/26 04:45:45;;;;;;;;;;;;;;;25.53;46.80;94486.44;5022338;28;7195;-59
2022/10/26 04:48:12;;;;;;;;;;;;;;;25.52;47.22;94489.66;4998458;28;7153;-59
2022/10/26 04:50:44;;;;;;;;;;;;;;;25.52;47.28;94495.19;5026157;28;9152;-59
2022/10/26 04:53:20;;;;;;;;;;;;;;;25.51;47.27;94497.22;5014039;28;7581;-58
2022/10/26 04:55:48;;;;;;;;;;;;;;;25.49;47.38;94521.72;5026606;28;8448;-59
2022/10/26 04:58:35;;;;;;;;;;;;;;;25.47;47.57;94537.28;5018559;28;7271;-59
2022/10/26 05:01:11;;;;;;;;;;;;;;;25.48;47.46;94531.25;5014943;28;7033;-59
2022/10/26 05:03:43;;;;;;;;;;;;;;;25.49;47.78;94541.00;5036836;28;8929;-59
2022/10/26 05:06:09;;;;;;;;;;;;;;;25.49;47.32;94543.75;5021884;28;7876;-59
2022/10/26 05:08:44;;;;;;;;;;;;;;;25.50;47.62;94531.50;5020868;28;9228;-59
2022/10/26 05:11:28;;;;;;;;;;;;;;;25.50;47.29;94534.25;5014250;28;7299;-59
2022/10/26 05:13:54;;;;;;;;;;;;;;;25.49;47.61;94518.25;5015851;28;9112;-59
2022/10/26 05:16:34;;;;;;;;;;;;;;;25.45;47.21;94499.22;5015103;28;7277;-59
2022/10/26 05:19:01;;;;;;;;;;;;;;;25.44;47.65;94481.22;5026108;28;7591;-59
2022/10/26 05:21:30;;;;;;;;;;;;;;;25.43;47.23;94465.94;5026486;28;9112;-59
2022/10/26 05:23:58;;;;;;;;;;;;;;;25.44;47.90;94453.69;5042161;28;7539;-59
2022/10/26 05:26:26;;;;;;;;;;;;;;;25.43;47.90;94452.16;5026787;28;7282;-59
2022/10/26 05:28:52;;;;;;;;;;;;;;;25.46;47.56;94464.16;5020111;28;7309;-59
2022/10/26 05:31:19;;;;;;;;;;;;;;;25.42;48.16;94440.41;5030828;28;6977;-59
2022/10/26 05:33:59;;;;;;;;;;;;;;;25.44;47.48;94426.13;5028028;28;7202;-59
2022/10/26 05:36:31;;;;;;;;;;;;;;;25.44;47.65;94417.88;5006837;28;7005;-59
2022/10/26 05:39:07;;;;;;;;;;;;;;;25.46;47.78;94415.34;5008296;28;10548;-59
2022/10/26 05:41:35;;;;;;;;;;;;;;;25.45;47.43;94415.88;5011858;28;7492;-59
2022/10/26 05:44:07;;;;;;;;;;;;;;;25.46;47.48;94420.88;5010227;28;10628;-59
2022/10/26 05:46:36;;;;;;;;;;;;;;;25.43;47.29;94424.63;5008004;28;7258;-59
2022/10/26 05:49:08;;;;;;;;;;;;;;;25.31;47.99;94434.19;5040439;28;10470;-59
2022/10/26 05:51:45;;;;;;;;;;;;;;;25.25;48.03;94441.72;5010474;28;10806;-59
2022/10/26 05:54:11;;;;;;;;;;;;;;;25.22;48.79;94446.22;5026302;28;7073;-59
2022/10/26 05:56:39;;;;;;;;;;;;;;;25.18;48.67;94445.75;5004400;28;7171;-59
2022/10/26 05:59:16;;;;;;;;;;;;;;;25.23;48.68;94442.22;5009852;28;7522;-59
2022/10/26 06:02:07;;;;;;;;;;;;;;;25.26;48.01;94443.22;5014303;28;8981;-59
2022/10/26 06:04:47;;;;;;;;;;;;;;;25.28;48.03;94448.94;5008206;28;7810;-59
2022/10/26 06:07:19;;;;;;;;;;;;;;;25.36;47.62;94463.66;5000775;28;7278;-59
2022/10/26 06:09:48;;;;;;;;;;;;;;;25.40;47.59;94464.91;5010290;28;7523;-59
2022/10/26 06:12:17;;;;;;;;;;;;;;;25.44;47.80;94470.19;5032804;28;9028;-59
2022/10/26 06:14:46;;;;;;;;;;;;;;;25.52;47.37;94465.63;5009837;28;8895;-59
2022/10/26 06:17:21;;;;;;;;;;;;;;;25.58;47.74;94463.59;5021065;28;8711;-59
2022/10/26 06:20:09;;;;;;;;;;;;;;;25.66;47.30;94486.63;5000695;28;7667;-59
2022/10/26 06:22:37;;;;;;;;;;;;;;;25.70;47.40;94498.13;5005644;28;7074;-59
2022/10/26 06:25:24;;;;;;;;;;;;;;;25.75;47.03;94511.09;5041988;28;7087;-59
2022/10/26 06:28:37;;;;;;;;;;;;;;;25.80;47.33;94518.59;5005227;28;7220;-59
2022/10/26 06:31:17;;;;;;;;;;;;;;;25.81;47.19;94525.59;5008485;28;9410;-59
2022/10/26 06:34:06;;;;;;;;;;;;;;;25.85;46.81;94519.81;5026281;28;7103;-59
2022/10/26 06:36:33;;;;;;;;;;;;;;;25.88;47.40;94518.81;5010173;28;6998;-59
2022/10/26 06:39:36;;;;;;;;;;;;;;;25.88;47.49;94527.81;5024376;28;7552;-59
2022/10/26 06:42:11;;;;;;;;;;;;;;;25.90;47.49;94538.34;4957544;28;7431;-59
2022/10/26 06:45:11;;;;;;;;;;;;;;;25.91;47.50;94537.06;4966438;28;7514;-59
2022/10/26 06:47:56;;;;;;;;;;;;;;;25.92;47.11;94522.78;4949392;28;7307;-59
2022/10/26 06:50:35;;;;;;;;;;;;;;;25.91;47.50;94524.03;4947868;28;8623;-59
2022/10/26 06:53:32;;;;;;;;;;;;;;;25.91;47.40;94513.00;4928121;29;7255;-59
2022/10/26 06:56:20;;;;;;;;;;;;;;;25.93;46.99;94529.03;4931917;29;7028;-59
2022/10/26 06:59:27;;;;;;;;;;;;;;;25.93;46.84;94538.06;4946152;28;7267;-59
2022/10/26 07:01:53;;;;;;;;;;;;;;;25.98;47.33;94537.28;4911255;29;7278;-59
2022/10/26 07:04:20;;;;;;;;;;;;;;;26.03;47.38;94533.00;4913610;29;7276;-60
2022/10/26 07:06:47;;;;;;;;;;;;;;;26.09;47.09;94526.22;4913522;29;7420;-59
2022/10/26 07:09:22;;;;;;;;;;;;;;;26.14;46.95;94524.69;4912655;29;8041;-59
2022/10/26 07:11:50;;;;;;;;;;;;;;;26.20;46.83;94535.66;4912638;29;7396;-59
2022/10/26 07:14:16;;;;;;;;;;;;;;;26.25;46.64;94548.69;4897634;29;6982;-59
2022/10/26 07:16:55;;;;;;;;;;;;;;;26.32;46.48;94545.38;4900712;29;9149;-59
2022/10/26 07:19:31;;;;;;;;;;;;;;;26.35;46.57;94558.13;4915240;29;7259;-59
2022/10/26 07:22:08;;;;;;;;;;;;;;;26.39;47.01;94564.13;4932518;29;9493;-59
2022/10/26 07:24:36;;;;;;;;;;;;;;;26.42;46.50;94571.38;4964368;28;7398;-59
2022/10/26 07:27:02;;;;;;;;;;;;;;;26.45;46.66;94575.84;4950664;28;7276;-59
2022/10/26 07:29:28;;;;;;;;;;;;;;;26.48;46.71;94581.09;4953237;28;8448;-59
2022/10/26 07:31:55;;;;;;;;;;;;;;;26.49;46.69;94571.56;4932611;29;7161;-59
2022/10/26 07:34:22;;;;;;;;;;;;;;;26.53;47.07;94566.53;4967040;28;7113;-59
2022/10/26 07:37:01;;;;;;;;;;;;;;;26.52;46.29;94567.78;5028518;28;7347;-59
2022/10/26 07:39:31;;;;;;;;;;;;;;;26.56;47.18;94564.75;5017556;28;7223;-59
2022/10/26 07:42:01;;;;;;;;;;;;;;;26.57;46.55;94571.78;5009775;28;8636;-59
2022/10/26 07:44:28;;;;;;;;;;;;;;;26.59;46.43;94574.75;5009658;28;7163;-59
2022/10/26 07:47:01;;;;;;;;;;;;;;;26.59;46.27;94572.00;5018510;28;7212;-59
2022/10/26 07:49:42;;;;;;;;;;;;;;;26.59;46.39;94581.03;5007393;28;7230;-59
2022/10/26 07:52:26;;;;;;;;;;;;;;;26.61;46.21;94588.78;5002541;28;7027;-59
2022/10/26 07:54:52;;;;;;;;;;;;;;;26.61;46.26;94591.53;5023920;28;7207;-59
2022/10/26 07:57:18;;;;;;;;;;;;;;;26.61;46.56;94603.34;5024953;28;7249;-59
2022/10/26 07:59:50;;;;;;;;;;;;;;;26.62;46.52;94593.78;5025766;28;7333;-59
2022/10/26 08:02:16;;;;;;;;;;;;;;;26.62;46.77;94602.06;5008932;28;8169;-59
2022/10/26 08:04:42;;;;;;;;;;;;;;;26.64;46.59;94609.84;5005716;28;7220;-59
2022/10/26 08:07:11;;;;;;;;;;;;;;;26.63;46.25;94619.38;5025251;28;7273;-59
2022/10/26 08:09:42;;;;;;;;;;;;;;;26.64;46.24;94626.41;5011870;28;8397;-59
2022/10/26 08:12:08;;;;;;;;;;;;;;;26.64;46.14;94621.59;5010710;28;7559;-59
2022/10/26 08:14:47;;;;;;;;;;;;;;;26.62;46.45;94632.41;5011070;28;7155;-59
2022/10/26 08:17:40;;;;;;;;;;;;;;;26.63;46.72;94631.16;5006401;28;9427;-59
2022/10/26 08:20:36;;;;;;;;;;;;;;;26.61;46.54;94633.69;5008291;28;7244;-59
2022/10/26 08:23:17;;;;;;;;;;;;;;;26.60;46.43;94625.94;5008463;28;7933;-59
2022/10/26 08:25:43;;;;;;;;;;;;;;;26.60;46.15;94631.44;5012487;28;7123;-59
2022/10/26 08:28:11;;;;;;;;;;;;;;;26.58;46.27;94633.94;5008205;28;7087;-59
2022/10/26 08:30:53;;;;;;;;;;;;;;;26.57;45.97;94635.22;5023449;28;8643;-59
2022/10/26 08:33:23;;;;;;;;;;;;;;;26.56;46.68;94634.47;5025269;28;10554;-59
2022/10/26 08:36:07;;;;;;;;;;;;;;;26.55;46.51;94643.25;5009490;28;7223;-60
2022/10/26 08:39:03;;;;;;;;;;;;;;;26.55;46.93;94655.06;5007422;28;7219;-60
2022/10/26 08:41:44;;;;;;;;;;;;;;;26.55;46.25;94643.25;5006804;28;7282;-60
2022/10/26 08:44:22;;;;;;;;;;;;;;;26.53;46.80;94651.28;4993858;28;7121;-60
2022/10/26 08:46:57;;;;;;;;;;;;;;;26.51;46.49;94657.31;4995602;28;9005;-60
2022/10/26 08:49:29;;;;;;;;;;;;;;;26.50;46.54;94658.59;5011195;28;9010;-60
2022/10/26 08:52:00;;;;;;;;;;;;;;;26.50;46.60;94666.84;5008636;28;7180;-60
2022/10/26 08:54:40;;;;;;;;;;;;;;;26.51;46.94;94673.13;5011555;28;7387;-60
2022/10/26 08:57:24;;;;;;;;;;;;;;;26.50;46.33;94671.63;4987828;28;7350;-61
2022/10/26 09:00:14;;;;;;;;;;;;;;;26.48;46.71;94680.41;5004184;28;9040;-61
2022/10/26 09:02:41;;;;;;;;;;;;;;;26.47;46.68;94684.41;4991715;28;7348;-61
2022/10/26 09:05:27;;;;;;;;;;;;;;;26.46;46.50;94682.19;4991390;28;7605;-61
2022/10/26 09:08:04;;;;;;;;;;;;;;;26.45;46.71;94686.94;4988885;28;8496;-61
2022/10/26 09:10:40;;;;;;;;;;;;;;;26.45;46.88;94694.44;4994234;28;9358;-61
2022/10/26 09:13:33;;;;;;;;;;;;;;;26.44;46.71;94690.22;4993144;28;7105;-61
2022/10/26 09:16:36;;;;;;;;;;;;;;;26.44;46.20;94690.97;4996973;28;7555;-61
2022/10/26 09:19:47;;;;;;;;;;;;;;;26.43;46.60;94694.22;4933111;28;7551;-61
2022/10/26 09:22:59;;;;;;;;;;;;;;;26.42;46.36;94690.72;4934151;28;8054;-61
2022/10/26 09:25:34;;;;;;;;;;;;;;;26.41;46.70;94682.94;4951839;28;9060;-61
2022/10/26 09:28:03;;;;;;;;;;;;;;;26.41;46.69;94697.50;4952912;28;9395;-61
2022/10/26 09:30:43;;;;;;;;;;;;;;;26.41;46.69;94688.47;4937817;28;7235;-61
2022/10/26 09:33:16;;;;;;;;;;;;;;;26.41;46.57;94699.50;4935700;28;8979;-61
2022/10/26 09:36:12;;;;;;;;;;;;;;;26.40;47.04;94698.75;4951682;28;7253;-61
2022/10/26 09:39:14;;;;;;;;;;;;;;;26.40;46.29;94695.25;4945406;28;9146;-61
2022/10/26 09:41:58;;;;;;;;;;;;;;;26.39;46.92;94702.75;4933980;28;6978;-61
2022/10/26 09:44:41;;;;;;;;;;;;;;;26.37;46.65;94699.78;4939671;28;9680;-61
2022/10/26 09:47:26;;;;;;;;;;;;;;;26.38;46.90;94704.00;4948546;28;8752;-61
2022/10/26 09:50:23;;;;;;;;;;;;;;;26.37;46.65;94707.28;4947101;28;8357;-61
2022/10/26 09:53:08;;;;;;;;;;;;;;;26.34;46.77;94709.03;4902821;29;7065;-61
2022/10/26 09:55:55;;;;;;;;;;;;;;;26.34;46.60;94719.34;4919884;29;7292;-61
2022/10/26 09:58:31;;;;;;;;;;;;;;;26.32;47.29;94713.59;4898682;29;6922;-61
2022/10/26 10:01:19;;;;;;;;;;;;;;;26.34;46.74;94724.88;4895466;29;7228;-61
2022/10/26 10:04:21;;;;;;;;;;;;;;;26.33;47.47;94728.88;4904072;29;9151;-61
2022/10/26 10:07:12;;;;;;;;;;;;;;;26.32;46.82;94728.13;4875838;29;7391;-61
2022/10/26 10:10:16;;;;;;;;;;;;;;;26.31;47.39;94729.38;4875506;29;8293;-61
2022/10/26 10:12:57;;;;;;;;;;;;;;;26.29;47.61;94729.16;4865902;29;9011;-61
2022/10/26 10:15:50;;;;;;;;;;;;;;;26.30;47.57;94736.16;4880207;29;9113;-61
2022/10/26 10:18:23;;;;;;;;;;;;;;;26.31;47.41;94732.16;4883601;29;7476;-61
2022/10/26 10:20:59;;;;;;;;;;;;;;;26.31;47.81;94739.66;4882914;29;9185;-61
2022/10/26 10:23:32;;;;;;;;;;;;;;;26.32;46.92;94741.16;4874319;29;9960;-61
2022/10/26 10:26:12;;;;;;;;;;;;;;;26.32;47.23;94744.66;4870862;29;7251;-61
2022/10/26 10:28:41;;;;;;;;;;;;;;;26.32;47.67;94749.44;4895012;28;6881;-61
2022/10/26 10:31:26;;;;;;;;;;;;;;;26.34;47.34;94742.13;4963187;28;7228;-61
2022/10/26 10:34:15;;;;;;;;;;;;;;;26.32;47.44;94749.44;4984006;28;9200;-61
2022/10/26 10:36:41;;;;;;;;;;;;;;;26.34;47.37;94749.69;4961966;28;8785;-61
2022/10/26 10:39:36;;;;;;;;;;;;;;;26.32;47.40;94750.19;4954658;28;7142;-61
2022/10/26 10:42:26;;;;;;;;;;;;;;;26.35;48.03;94751.16;4973899;28;6989;-60
2022/10/26 10:44:55;;;;;;;;;;;;;;;26.34;47.85;94749.69;4980362;28;7273;-60
2022/10/26 10:48:03;;;;;;;;;;;;;;;26.37;47.91;94749.41;4970484;28;9414;-61
2022/10/26 10:50:35;;;;;;;;;;;;;;;26.37;47.95;94749.41;4948866;28;7091;-61
2022/10/26 10:53:25;;;;;;;;;;;;;;;26.38;47.94;94753.66;4964029;28;7346;-61
2022/10/26 10:56:22;;;;;;;;;;;;;;;26.40;47.82;94761.44;4948266;28;8485;-60
2022/10/26 10:59:08;;;;;;;;;;;;;;;26.40;47.89;94751.16;4926905;29;7318;-61
2022/10/26 11:01:44;;;;;;;;;;;;;;;26.40;47.36;94753.94;4923111;29;9402;-61
2022/10/26 11:04:33;;;;;;;;;;;;;;;26.40;47.37;94755.94;4940244;28;7159;-60
2022/10/26 11:07:05;;;;;;;;;;;;;;;26.39;47.57;94763.44;4905163;29;7052;-61
2022/10/26 11:09:40;;;;;;;;;;;;;;;26.40;47.57;94764.19;4920476;28;6992;-61
2022/10/26 11:12:31;;;;;;;;;;;;;;;26.41;47.47;94763.69;4928251;29;7215;-61
2022/10/26 11:15:11;;;;;;;;;;;;;;;26.39;47.46;94759.94;4941018;28;7232;-61
2022/10/26 11:18:06;;;;;;;;;;;;;;;26.40;47.49;94755.94;4942360;28;6986;-61
2022/10/26 11:20:56;;;;;;;;;;;;;;;26.42;46.99;94758.94;4924115;28;7164;-61
2022/10/26 11:23:24;;;;;;;;;;;;;;;26.45;47.63;94760.66;4945449;28;7153;-61
2022/10/26 11:25:50;;;;;;;;;;;;;;;26.44;47.41;94759.16;4951684;28;7220;-61
2022/10/26 11:28:37;;;;;;;;;;;;;;;26.46;47.63;94757.41;4966190;28;7158;-61
2022/10/26 11:31:24;;;;;;;;;;;;;;;26.45;47.03;94755.88;4983075;28;7296;-61
2022/10/26 11:34:05;;;;;;;;;;;;;;;26.47;47.42;94758.16;4953216;28;11856;-57
2022/10/26 11:36:49;;;;;;;;;;;;;;;26.46;47.78;94751.13;5009196;28;9705;-58
2022/10/26 11:40:00;;;;;;;;;;;;;;;26.47;47.42;94747.84;5011868;28;8807;-58
2022/10/26 11:43:00;;;;;;;;;;;;;;;26.49;46.90;94753.63;5009723;28;6997;-58
2022/10/26 11:46:05;;;;;;;;;;;;;;;26.52;46.75;94754.59;5003529;28;9215;-58
2022/10/26 11:49:01;;;;;;;;;;;;;;;26.53;46.99;94753.38;4969337;28;7070;-59
2022/10/26 11:51:27;;;;;;;;;;;;;;;26.52;46.83;94754.59;4964829;28;7522;-59
2022/10/26 11:54:00;;;;;;;;;;;;;;;26.52;47.11;94757.38;4966183;28;7132;-59
2022/10/26 11:56:45;;;;;;;;;;;;;;;26.51;47.00;94755.88;4969495;28;7198;-59
2022/10/26 11:59:19;;;;;;;;;;;;;;;26.54;46.95;94763.13;4986316;28;7573;-59
2022/10/26 12:01:57;;;;;;;;;;;;;;;26.55;46.43;94764.63;4953122;28;7494;-59
2022/10/26 12:04:30;;;;;;;;;;;;;;;26.56;46.40;94763.38;4950621;28;9430;-58
2022/10/26 12:07:14;;;;;;;;;;;;;;;26.56;46.32;94766.88;4986185;28;7302;-59
2022/10/26 12:10:18;;;;;;;;;;;;;;;26.59;45.96;94767.88;4954697;28;8816;-59
2022/10/26 12:13:30;;;;;;;;;;;;;;;26.62;46.00;94775.16;4970594;28;7247;-58
2022/10/26 12:16:28;;;;;;;;;;;;;;;26.65;46.23;94771.34;4950658;29;7218;-59
2022/10/26 12:19:38;;;;;;;;;;;;;;;26.63;46.29;94773.88;4879279;29;8940;-59
2022/10/26 12:22:28;;;;;;;;;;;;;;;26.63;46.38;94777.41;4878932;29;7386;-59
2022/10/26 12:25:12;;;;;;;;;;;;;;;26.64;46.04;94769.88;4913404;29;8865;-58
2022/10/26 12:27:37;;;;;;;;;;;;;;;26.65;46.50;94774.88;4922630;29;7584;-59
2022/10/26 12:30:20;;;;;;;;;;;;;;;26.67;46.57;94768.84;4908047;29;9415;-58
2022/10/26 12:32:49;;;;;;;;;;;;;;;26.66;46.38;94776.38;4910344;29;7209;-59
2022/10/26 12:35:44;;;;;;;;;;;;;;;26.67;46.54;94772.34;4914990;29;8288;-58
2022/10/26 12:39:05;;;;;;;;;;;;;;;26.68;46.66;94779.38;4900576;29;8496;-59
2022/10/26 12:42:24;;;;;;;;;;;;;;;26.73;46.65;94780.66;4897273;29;7330;-59
2022/10/26 12:44:57;;;;;;;;;;;;;;;26.75;46.07;94783.66;4877763;29;7711;-59
2022/10/26 12:48:01;;;;;;;;;;;;;;;26.77;46.51;94776.34;4842873;29;8332;-58
2022/10/26 12:50:27;;;;;;;;;;;;;;;26.78;46.42;94782.63;4786610;29;7341;-59
2022/10/26 12:53:19;;;;;;;;;;;;;;;26.79;46.50;94770.31;4798568;29;8218;-58
2022/10/26 12:56:04;;;;;;;;;;;;;;;26.82;46.33;94774.81;4833496;29;7658;-59
2022/10/26 12:59:16;;;;;;;;;;;;;;;26.84;46.05;94783.31;4849754;29;7945;-58
2022/10/26 13:02:27;;;;;;;;;;;;;;;26.87;46.06;94790.59;4896813;29;7143;-59
2022/10/26 13:05:43;;;;;;;;;;;;;;;26.88;46.30;94779.03;4898449;29;7398;-59
2022/10/26 13:08:54;;;;;;;;;;;;;;;26.90;46.16;94773.75;4895034;29;7293;-59
2022/10/26 13:11:55;;;;;;;;;;;;;;;26.94;46.27;94781.03;4877151;29;7783;-59
2022/10/26 13:14:31;;;;;;;;;;;;;;;26.93;46.17;94780.28;4883337;29;7286;-58
2022/10/26 13:17:25;;;;;;;;;;;;;;;26.98;46.16;94784.25;4925986;28;7307;-59
2022/10/26 13:20:16;;;;;;;;;;;;;;;26.99;46.43;94775.47;4952293;28;7284;-59
2022/10/26 13:22:46;;;;;;;;;;;;;;;26.99;46.38;94775.47;4969668;28;6955;-58
2022/10/26 13:25:23;;;;;;;;;;;;;;;27.00;46.46;94785.25;4987638;28;7231;-59
2022/10/26 13:28:05;;;;;;;;;;;;;;;27.03;45.88;94773.22;5006512;28;7434;-58
2022/10/26 13:30:58;;;;;;;;;;;;;;;27.05;46.01;94772.69;5000219;28;7311;-59
2022/10/26 13:33:43;;;;;;;;;;;;;;;27.07;46.49;94779.19;4990843;28;7239;-59
2022/10/26 13:36:33;;;;;;;;;;;;;;;27.11;45.89;94776.16;4986168;28;9043;-58
2022/10/26 13:39:23;;;;;;;;;;;;;;;27.10;45.97;94772.63;5000663;28;7271;-59
2022/10/26 13:42:15;;;;;;;;;;;;;;;27.16;45.78;94773.38;5012192;28;7194;-59
2022/10/26 13:45:26;;;;;;;;;;;;;;;27.18;45.86;94767.34;5037877;28;7249;-58
2022/10/26 13:48:15;;;;;;;;;;;;;;;27.19;45.59;94769.56;5022740;28;7220;-59
2022/10/26 13:50:50;;;;;;;;;;;;;;;27.21;46.07;94766.31;5007726;28;7014;-58
2022/10/26 13:53:42;;;;;;;;;;;;;;;27.21;46.10;94769.81;5005181;28;7002;-58
2022/10/26 13:56:35;;;;;;;;;;;;;;;27.23;45.67;94772.06;4995773;28;7044;-59
2022/10/26 13:59:10;;;;;;;;;;;;;;;27.24;45.72;94768.03;5001724;28;7592;-59
2022/10/26 14:01:45;;;;;;;;;;;;;;;27.27;46.11;94775.31;5011967;28;7267;-59
2022/10/26 14:04:37;;;;;;;;;;;;;;;27.27;45.14;94773.31;4999539;28;7581;-59
2022/10/26 14:07:21;;;;;;;;;;;;;;;27.31;46.00;94764.72;5008996;28;7438;-59
2022/10/26 14:09:57;;;;;;;;;;;;;;;27.33;45.29;94773.25;5007023;28;6971;-59
2022/10/26 14:12:27;;;;;;;;;;;;;;;27.34;45.32;94778.25;4995340;28;7381;-59
2022/10/26 14:15:04;;;;;;;;;;;;;;;27.35;45.50;94773.50;5000626;28;7527;-59